createdAt,value
2023-04-01T00:02:27.936Z,64.14
2023-04-01T00:05:11.179Z,64.50
2023-04-01T00:07:45.325Z,64.23
2023-04-01T00:10:17.674Z,64.26
2023-04-01T00:12:54.836Z,64.05
2023-04-01T00:15:47.693Z,63.97
2023-04-01T00:18:25.722Z,63.95
2023-04-01T00:21:00.116Z,63.77
2023-04-01T00:23:52.816Z,63.81
2023-04-01T00:26:45.656Z,64.06
2023-04-01T00:29:31.536Z,64.24
2023-04-01T00:32:04.045Z,64.27
2023-04-01T00:34:56.493Z,64.23
2023-04-01T00:37:32.434Z,64.44
2023-04-01T00:40:09.252Z,64.81
2023-04-01T00:42:41.241Z,64.69
2023-04-01T00:45:37.262Z,64.66
2023-04-01T00:48:16.257Z,64.35
2023-04-01T00:51:11.883Z,64.32
2023-04-01T00:53:55.277Z,64.40
2023-04-01T00:56:52.383Z,64.53
2023-04-01T00:59:27.657Z,64.52
2023-04-01T01:02:02.950Z,64.59
2023-04-01T01:04:40.522Z,64.46
2023-04-01T01:07:44.362Z,64.42
2023-04-01T01:10:22.718Z,64.54
2023-04-01T01:13:09.309Z,64.50
2023-04-01T01:16:06.667Z,64.69
2023-04-01T01:19:07.308Z,64.68
2023-04-01T01:22:18.962Z,64.77
2023-04-01T01:25:32.369Z,65.02
2023-04-01T01:28:46.655Z,65.16
2023-04-01T01:31:47.489Z,65.33
2023-04-01T01:34:50.334Z,65.23
2023-04-01T01:37:45.479Z,65.21
2023-04-01T01:40:38.801Z,65.18
2023-04-01T01:43:34.437Z,65.28
2023-04-01T01:46:26.227Z,65.24
2023-04-01T01:49:20.671Z,65.18
2023-04-01T01:52:13.226Z,65.32
2023-04-01T01:54:57.178Z,65.21
2023-04-01T01:57:49.286Z,65.06
2023-04-01T02:00:42.629Z,65.13
2023-04-01T02:03:37.839Z,65.27
2023-04-01T02:06:34.918Z,65.38
2023-04-01T02:09:27.085Z,65.32
2023-04-01T02:12:21.318Z,65.58
2023-04-01T02:15:16.694Z,65.70
2023-04-01T02:18:05.949Z,65.84
2023-04-01T02:21:00.264Z,65.98
2023-04-01T02:23:55.233Z,66.09
2023-04-01T02:26:48.744Z,65.92
2023-04-01T02:29:41.363Z,65.96
2023-04-01T02:32:15.032Z,65.82
2023-04-01T02:35:09.186Z,65.76
2023-04-01T02:38:01.670Z,66.06
2023-04-01T02:40:59.382Z,66.06
2023-04-01T02:43:51.373Z,66.12
2023-04-01T02:46:43.586Z,66.08
2023-04-01T02:49:35.732Z,66.06
2023-04-01T02:52:27.785Z,65.98
2023-04-01T02:55:20.131Z,65.76
2023-04-01T02:57:55.041Z,65.86
2023-04-01T03:00:30.325Z,65.94
2023-04-01T03:03:22.350Z,65.65
2023-04-01T03:06:16.636Z,65.78
2023-04-01T03:08:49.187Z,65.64
2023-04-01T03:11:41.802Z,65.72
2023-04-01T03:14:33.819Z,65.83
2023-04-01T03:17:26.092Z,65.79
2023-04-01T03:20:00.539Z,65.75
2023-04-01T03:22:52.501Z,65.83
2023-04-01T03:25:44.482Z,65.84
2023-04-01T03:28:36.572Z,65.76
2023-04-01T03:31:29.040Z,65.82
2023-04-01T03:34:12.396Z,65.88
2023-04-01T03:37:04.375Z,65.96
2023-04-01T03:39:36.375Z,65.69
2023-04-01T03:42:28.412Z,65.88
2023-04-01T03:45:18.150Z,65.92
2023-04-01T03:48:10.228Z,65.80
2023-04-01T03:50:45.672Z,65.85
2023-04-01T03:53:37.823Z,66.04
2023-04-01T03:56:29.856Z,65.91
2023-04-01T03:59:21.871Z,65.82
2023-04-01T04:02:13.899Z,65.71
2023-04-01T04:05:07.962Z,65.79
2023-04-01T04:07:59.939Z,65.74
2023-04-01T04:10:58.269Z,65.96
2023-04-01T04:13:50.523Z,65.90
2023-04-01T04:16:42.568Z,65.86
2023-04-01T04:19:36.525Z,66.03
2023-04-01T04:22:28.675Z,66.12
2023-04-01T04:25:20.922Z,66.10
2023-04-01T04:27:55.174Z,66.13
2023-04-01T04:30:38.108Z,66.09
2023-04-01T04:33:30.332Z,66.20
2023-04-01T04:36:11.799Z,66.30
2023-04-01T04:39:04.596Z,66.32
2023-04-01T04:41:56.524Z,66.36
2023-04-01T04:44:48.555Z,66.32
2023-04-01T04:47:40.796Z,66.37
2023-04-01T04:50:32.752Z,66.27
2023-04-01T04:53:26.455Z,65.98
2023-04-01T04:56:21.345Z,66.00
2023-04-01T04:58:56.516Z,65.89
2023-04-01T05:01:48.555Z,65.86
2023-04-01T05:04:40.835Z,66.10
2023-04-01T05:07:32.790Z,66.05
2023-04-01T05:10:24.766Z,65.92
2023-04-01T05:13:12.881Z,65.78
2023-04-01T05:16:02.257Z,65.70
2023-04-01T05:18:54.205Z,65.89
2023-04-01T05:21:46.152Z,65.78
2023-04-01T05:24:38.254Z,65.62
2023-04-01T05:27:30.295Z,65.21
2023-04-01T05:30:22.406Z,65.16
2023-04-01T05:33:14.987Z,64.91
2023-04-01T05:36:12.161Z,64.96
2023-04-01T05:39:04.524Z,64.86
2023-04-01T05:41:56.572Z,64.83
2023-04-01T05:44:48.625Z,64.90
2023-04-01T05:47:26.148Z,64.61
2023-04-01T05:50:18.587Z,64.61
2023-04-01T05:53:10.651Z,64.45
2023-04-01T05:56:06.196Z,64.52
2023-04-01T05:58:56.625Z,64.62
2023-04-01T06:01:48.538Z,64.40
2023-04-01T06:04:42.232Z,64.46
2023-04-01T06:07:34.384Z,64.48
2023-04-01T06:10:52.490Z,64.43
2023-04-01T06:14:06.555Z,64.44
2023-04-01T06:16:56.715Z,64.70
2023-04-01T06:19:53.783Z,64.56
2023-04-01T06:23:09.020Z,64.34
2023-04-01T06:25:53.026Z,64.39
2023-04-01T06:28:45.221Z,64.45
2023-04-01T06:31:33.687Z,64.24
2023-04-01T06:34:24.445Z,64.23
2023-04-01T06:37:26.845Z,64.17
2023-04-01T06:40:41.272Z,64.14
2023-04-01T06:43:40.504Z,63.97
2023-04-01T06:46:22.039Z,63.50
2023-04-01T06:49:30.557Z,63.11
2023-04-01T06:52:20.620Z,62.85
2023-04-01T06:55:02.178Z,62.59
2023-04-01T06:57:41.985Z,62.28
2023-04-01T07:00:37.611Z,62.19
2023-04-01T07:03:21.709Z,61.93
2023-04-01T07:06:18.261Z,61.68
2023-04-01T07:09:15.884Z,61.32
2023-04-01T07:12:18.473Z,61.13
2023-04-01T07:15:21.278Z,61.17
2023-04-01T07:18:18.263Z,61.25
2023-04-01T07:21:21.642Z,61.29
2023-04-01T07:24:11.183Z,61.54
2023-04-01T07:26:43.264Z,61.59
2023-04-01T07:29:36.118Z,62.02
2023-04-01T07:32:42.296Z,62.09
2023-04-01T07:35:23.803Z,62.34
2023-04-01T07:38:25.233Z,62.74
2023-04-01T07:41:12.490Z,62.95
2023-04-01T07:44:18.292Z,62.95
2023-04-01T07:47:13.365Z,63.01
2023-04-01T07:50:01.106Z,63.24
2023-04-01T07:53:03.196Z,63.71
2023-04-01T07:55:43.504Z,63.66
2023-04-01T07:58:33.783Z,63.81
2023-04-01T08:01:19.933Z,64.06
2023-04-01T08:04:21.400Z,64.33
2023-04-01T08:07:17.256Z,64.47
2023-04-01T08:10:18.616Z,64.10
2023-04-01T08:13:12.829Z,63.99
2023-04-01T08:16:04.815Z,63.79
2023-04-01T08:18:49.012Z,63.65
2023-04-01T08:21:26.224Z,63.88
2023-04-01T08:24:08.552Z,64.18
2023-04-01T08:26:47.355Z,64.36
2023-04-01T08:29:28.415Z,64.32
2023-04-01T08:32:08.970Z,63.99
2023-04-01T08:34:49.387Z,64.11
2023-04-01T08:37:43.805Z,64.01
2023-04-01T08:40:41.781Z,63.59
2023-04-01T08:44:07.012Z,63.52
2023-04-01T08:47:20.234Z,63.77
2023-04-01T08:50:28.701Z,63.58
2023-04-01T08:53:24.749Z,63.57
2023-04-01T08:56:19.683Z,63.85
2023-04-01T08:59:23.758Z,63.74
2023-04-01T09:02:38.652Z,62.81
2023-04-01T09:05:43.403Z,62.51
2023-04-01T09:08:35.456Z,62.09
2023-04-01T09:11:40.322Z,61.48
2023-04-01T09:14:26.940Z,61.76
2023-04-01T09:17:32.125Z,62.09
2023-04-01T09:20:41.420Z,62.48
2023-04-01T09:23:49.098Z,62.56
2023-04-01T09:26:43.566Z,62.83
2023-04-01T09:29:59.183Z,62.31
2023-04-01T09:33:10.839Z,62.23
2023-04-01T09:35:50.398Z,62.40
2023-04-01T09:38:56.766Z,62.52
2023-04-01T09:42:08.255Z,63.04
2023-04-01T09:45:02.420Z,63.92
2023-04-01T09:48:08.107Z,64.49
2023-04-01T09:50:54.323Z,64.58
2023-04-01T09:54:04.164Z,64.37
2023-04-01T09:57:11.479Z,63.82
2023-04-01T10:00:13.352Z,63.27
2023-04-01T10:03:38.603Z,63.36
2023-04-01T10:06:59.496Z,61.99
2023-04-01T10:10:18.714Z,61.18
2023-04-01T10:13:24.068Z,59.52
2023-04-01T10:16:11.755Z,59.60
2023-04-01T10:19:24.276Z,59.67
2023-04-01T10:22:36.595Z,59.87
2023-04-01T10:25:29.414Z,60.51
2023-04-01T10:28:57.211Z,60.86
2023-04-01T10:32:13.364Z,60.93
2023-04-01T10:35:16.529Z,61.06
2023-04-01T10:38:22.149Z,61.25
2023-04-01T10:41:48.883Z,60.90
2023-04-01T10:45:24.756Z,60.12
2023-04-01T10:48:31.890Z,57.84
2023-04-01T10:51:53.981Z,56.74
2023-04-01T10:54:48.347Z,56.51
2023-04-01T10:57:52.464Z,57.35
2023-04-01T11:00:39.350Z,57.40
2023-04-01T11:03:59.547Z,57.35
2023-04-01T11:07:12.867Z,56.88
2023-04-01T11:10:22.427Z,56.76
2023-04-01T11:13:31.532Z,57.31
2023-04-01T11:16:52.838Z,56.99
2023-04-01T11:20:27.954Z,56.28
2023-04-01T11:24:04.578Z,56.33
2023-04-01T11:27:13.172Z,56.01
2023-04-01T11:30:22.055Z,52.82
2023-04-01T11:33:21.541Z,52.78
2023-04-01T11:36:08.863Z,53.01
2023-04-01T11:39:13.545Z,53.49
2023-04-01T11:42:17.168Z,53.56
2023-04-01T11:45:03.948Z,54.24
2023-04-01T11:48:25.919Z,54.92
2023-04-01T11:51:35.350Z,55.16
2023-04-01T11:54:56.964Z,54.83
2023-04-01T11:58:00.036Z,54.98
2023-04-01T12:01:06.033Z,54.55
2023-04-01T12:04:39.996Z,54.95
2023-04-01T12:07:54.274Z,55.19
2023-04-01T12:10:57.444Z,55.82
2023-04-01T12:13:58.049Z,56.40
2023-04-01T12:17:00.662Z,56.67
2023-04-01T12:20:00.540Z,56.25
2023-04-01T12:22:50.979Z,55.62
2023-04-01T12:25:53.754Z,54.31
2023-04-01T12:28:59.456Z,53.88
2023-04-01T12:31:59.554Z,53.12
2023-04-01T12:35:21.247Z,52.37
2023-04-01T12:38:28.724Z,52.49
2023-04-01T12:41:29.662Z,52.44
2023-04-01T12:44:36.284Z,52.75
2023-04-01T12:47:47.560Z,53.23
2023-04-01T12:50:42.514Z,53.75
2023-04-01T12:53:36.211Z,54.08
2023-04-01T12:56:16.543Z,54.38
2023-04-01T12:59:21.639Z,54.61
2023-04-01T13:02:22.854Z,54.17
2023-04-01T13:05:18.334Z,53.43
2023-04-01T13:08:17.683Z,53.55
2023-04-01T13:11:10.832Z,53.81
2023-04-01T13:14:29.175Z,54.13
2023-04-01T13:17:31.851Z,53.91
2023-04-01T13:20:17.044Z,54.07
2023-04-01T13:23:08.748Z,54.25
2023-04-01T13:26:15.120Z,53.85
2023-04-01T13:28:59.113Z,54.18
2023-04-01T13:32:01.542Z,54.36
2023-04-01T13:35:23.165Z,54.48
2023-04-01T13:38:23.376Z,54.59
2023-04-01T13:41:07.738Z,54.56
2023-04-01T13:44:09.016Z,54.40
2023-04-01T13:47:02.769Z,54.20
2023-04-01T13:50:06.476Z,54.09
2023-04-01T13:53:08.409Z,53.95
2023-04-01T13:56:05.884Z,53.98
2023-04-01T13:59:09.946Z,54.33
2023-04-01T14:01:50.929Z,54.61
2023-04-01T14:04:43.678Z,54.83
2023-04-01T14:07:42.157Z,55.06
2023-04-01T14:10:20.809Z,55.41
2023-04-01T14:13:14.766Z,55.78
2023-04-01T14:16:15.071Z,55.47
2023-04-01T14:19:01.520Z,55.41
2023-04-01T14:22:00.781Z,55.59
2023-04-01T14:24:57.374Z,55.71
2023-04-01T14:27:56.147Z,56.11
2023-04-01T14:30:53.584Z,56.52
2023-04-01T14:36:23.368Z,56.89
2023-04-01T14:39:08.839Z,57.48
2023-04-01T14:42:06.065Z,58.03
2023-04-01T14:45:22.134Z,58.97
2023-04-01T14:48:25.335Z,59.70
2023-04-01T14:51:22.950Z,60.05
2023-04-01T14:54:23.633Z,60.72
2023-04-01T14:57:19.671Z,61.35
2023-04-01T15:00:19.200Z,61.88
2023-04-01T15:03:21.103Z,62.14
2023-04-01T15:06:31.014Z,62.59
2023-04-01T15:09:32.361Z,62.74
2023-04-01T15:12:33.062Z,62.64
2023-04-01T15:15:25.914Z,62.45
2023-04-01T15:18:16.568Z,62.47
2023-04-01T15:21:20.923Z,62.45
2023-04-01T15:24:23.427Z,62.61
2023-04-01T15:27:30.101Z,62.75
2023-04-01T15:30:40.390Z,63.17
2023-04-01T15:33:47.836Z,63.15
2023-04-01T15:36:46.998Z,63.08
2023-04-01T15:39:26.560Z,63.13
2023-04-01T15:42:15.716Z,62.91
2023-04-01T15:45:19.925Z,63.01
2023-04-01T15:48:29.374Z,62.99
2023-04-01T15:51:50.684Z,63.23
2023-04-01T15:55:05.168Z,63.29
2023-04-01T15:57:50.081Z,63.25
2023-04-01T16:00:30.237Z,63.33
2023-04-01T16:03:32.723Z,63.43
2023-04-01T16:06:31.913Z,63.51
2023-04-01T16:09:16.868Z,63.48
2023-04-01T16:11:56.685Z,63.35
2023-04-01T16:14:44.372Z,63.40
2023-04-01T16:17:38.683Z,63.48
2023-04-01T16:20:22.208Z,63.61
2023-04-01T16:23:03.934Z,63.89
2023-04-01T16:25:43.906Z,63.93
2023-04-01T16:28:25.463Z,64.03
2023-04-01T16:31:13.960Z,64.05
2023-04-01T16:33:53.525Z,64.04
2023-04-01T16:36:32.892Z,64.15
2023-04-01T16:39:24.558Z,64.23
2023-04-01T16:42:24.142Z,64.18
2023-04-01T16:45:01.360Z,64.10
2023-04-01T16:47:36.371Z,64.17
2023-04-01T16:50:20.794Z,64.34
2023-04-01T16:53:12.171Z,64.39
2023-04-01T16:55:53.913Z,64.62
2023-04-01T16:59:03.683Z,64.70
2023-04-01T17:01:46.757Z,64.62
2023-04-01T17:04:37.014Z,64.63
2023-04-01T17:07:40.929Z,64.76
2023-04-01T17:10:47.046Z,64.83
2023-04-01T17:13:48.157Z,64.85
2023-04-01T17:16:58.857Z,64.89
2023-04-01T17:20:34.032Z,65.05
2023-04-01T17:23:28.426Z,65.09
2023-04-01T17:26:16.462Z,65.12
2023-04-01T17:28:54.137Z,65.22
2023-04-01T17:31:55.106Z,65.30
2023-04-01T17:34:41.916Z,65.44
2023-04-01T17:37:32.973Z,65.56
2023-04-01T17:40:22.946Z,65.67
2023-04-01T17:43:24.730Z,65.82
2023-04-01T17:46:04.463Z,65.90
2023-04-01T17:48:51.582Z,66.02
2023-04-01T17:51:36.395Z,66.25
2023-04-01T17:54:22.343Z,66.44
2023-04-01T17:57:11.667Z,66.59
2023-04-01T17:59:52.292Z,66.82
2023-04-01T18:02:30.209Z,66.93
2023-04-01T18:05:49.839Z,67.16
2023-04-01T18:08:57.265Z,67.36
2023-04-01T18:12:00.754Z,67.59
2023-04-01T18:15:08.627Z,67.81
2023-04-01T18:17:58.556Z,67.95
2023-04-01T18:20:46.252Z,67.98
2023-04-01T18:23:52.219Z,67.97
2023-04-01T18:27:02.951Z,68.24
2023-04-01T18:29:57.142Z,68.13
2023-04-01T18:32:54.011Z,68.24
2023-04-01T18:35:56.697Z,68.39
2023-04-01T18:38:36.770Z,68.59
2023-04-01T18:41:37.346Z,68.76
2023-04-01T18:44:40.639Z,68.83
2023-04-01T18:47:46.831Z,68.93
2023-04-01T18:51:03.155Z,68.88
2023-04-01T18:53:44.856Z,68.87
2023-04-01T18:56:39.813Z,68.91
2023-04-01T18:59:28.461Z,68.76
2023-04-01T19:02:16.008Z,68.79
2023-04-01T19:05:11.633Z,68.78
2023-04-01T19:08:20.702Z,68.90
2023-04-01T19:11:12.032Z,69.01
2023-04-01T19:13:55.590Z,69.07
2023-04-01T19:16:56.239Z,69.09
2023-04-01T19:19:57.697Z,69.12
2023-04-01T19:23:09.713Z,69.16
2023-04-01T19:26:05.124Z,69.14
2023-04-01T19:28:57.588Z,69.03
2023-04-01T19:32:09.439Z,69.26
2023-04-01T19:35:06.432Z,69.31
2023-04-01T19:38:04.963Z,69.29
2023-04-01T19:41:06.179Z,69.33
2023-04-01T19:44:01.525Z,69.34
2023-04-01T19:46:39.108Z,69.31
2023-04-01T19:49:48.262Z,69.31
2023-04-01T19:52:49.758Z,69.22
2023-04-01T19:55:38.152Z,69.19
2023-04-01T19:58:28.273Z,69.10
2023-04-01T20:01:16.900Z,69.23
2023-04-01T20:04:05.676Z,69.13
2023-04-01T20:07:06.483Z,69.16
2023-04-01T20:10:00.297Z,69.05
2023-04-01T20:12:45.566Z,69.24
2023-04-01T20:15:33.819Z,69.30
2023-04-01T20:18:21.952Z,69.35
2023-04-01T20:21:02.955Z,69.28
2023-04-01T20:23:43.901Z,69.24
2023-04-01T20:26:25.191Z,69.26
2023-04-01T20:29:17.205Z,69.27
2023-04-01T20:32:25.435Z,69.22
2023-04-01T20:35:38.838Z,69.31
2023-04-01T20:38:30.007Z,69.24
2023-04-01T20:41:10.554Z,69.21
2023-04-01T20:44:04.592Z,69.34
2023-04-01T20:46:48.172Z,69.46
2023-04-01T20:49:51.533Z,69.47
2023-04-01T20:52:40.792Z,69.42
2023-04-01T20:56:03.473Z,69.37
2023-04-01T20:58:55.249Z,69.32
2023-04-01T21:01:47.090Z,69.35
2023-04-01T21:04:39.740Z,69.38
2023-04-01T21:07:31.056Z,69.40
2023-04-01T21:10:40.743Z,69.33
2023-04-01T21:13:27.191Z,69.44
2023-04-01T21:16:16.308Z,69.53
2023-04-01T21:19:04.403Z,69.63
2023-04-01T21:22:01.751Z,69.68
2023-04-01T21:25:08.332Z,69.69
2023-04-01T21:28:02.652Z,69.57
2023-04-01T21:30:47.702Z,69.64
2023-04-01T21:34:05.026Z,69.79
2023-04-01T21:36:56.621Z,69.75
2023-04-01T21:40:05.862Z,69.69
2023-04-01T21:42:50.993Z,69.66
2023-04-01T21:45:52.782Z,69.69
2023-04-01T21:48:54.855Z,69.82
2023-04-01T21:51:56.706Z,69.86
2023-04-01T21:54:46.275Z,69.87
2023-04-01T21:58:13.655Z,69.92
2023-04-01T22:00:55.588Z,69.98
2023-04-01T22:04:08.835Z,70.01
2023-04-01T22:07:08.626Z,70.10
2023-04-01T22:09:53.945Z,70.06
2023-04-01T22:12:50.218Z,70.17
2023-04-01T22:15:47.359Z,70.08
2023-04-01T22:18:46.273Z,70.18
2023-04-01T22:21:52.898Z,70.24
2023-04-01T22:24:35.043Z,70.18
2023-04-01T22:27:32.795Z,70.20
2023-04-01T22:30:30.123Z,70.29
2023-04-01T22:33:31.000Z,70.25
2023-04-01T22:36:31.329Z,70.34
2023-04-01T22:39:19.496Z,70.31
2023-04-01T22:42:33.673Z,70.38
2023-04-01T22:45:35.759Z,70.37
2023-04-01T22:48:34.782Z,70.33
2023-04-01T22:51:21.027Z,70.36
2023-04-01T22:54:21.770Z,70.46
2023-04-01T22:57:02.519Z,70.53
2023-04-01T22:59:46.807Z,70.48
2023-04-01T23:02:41.587Z,70.50
2023-04-01T23:05:25.281Z,70.46
2023-04-01T23:08:50.776Z,70.43
2023-04-01T23:11:50.316Z,70.51
2023-04-01T23:14:48.904Z,70.62
2023-04-01T23:17:56.145Z,70.52
2023-04-01T23:21:00.966Z,70.63
2023-04-01T23:24:07.110Z,70.73
2023-04-01T23:27:05.566Z,70.70
2023-04-01T23:29:57.567Z,70.67
2023-04-01T23:32:49.729Z,70.66
2023-04-01T23:35:50.556Z,70.67
2023-04-01T23:38:24.283Z,70.72
2023-04-01T23:41:25.508Z,70.70
2023-04-01T23:44:07.061Z,70.52
2023-04-01T23:46:44.459Z,70.45
2023-04-01T23:49:41.845Z,70.62
2023-04-01T23:52:37.825Z,70.64
2023-04-01T23:55:33.650Z,70.65
2023-04-01T23:58:28.316Z,70.56
